Brunswick Golden Isles Airport

Airport
ICAO code: 
KBQK
Summary
ICAO Region: 
NAM
Territory: 
Location: 
Brunswick, Georgia,
Coordinates: 
Aerial View: 
31° 15' 25.927" N, 81° 28' 8.432" W
Metar
Observation
KBQK 020955Z AUTO 28005KT 10SM CLR 07/07 A3013 RMK AO2 LTG DSNT E T00710069
Station
Brunswick / Glynco
Date/Time
2021-12-02 09:55:00
Wind direction
280°
Wind speed
05 kts
Lowest cloud amount
n/a
Temperature
7.1°C
Dew point
6.9°C
Humidity
98%
Weather condition
n/a

Description

Brunswick Golden Isles Airport, previously known as Glynco Jetport, is a public-use airport located 9 km north of the central business district of Brunswick, a city in Glynn County, Georgia.

Climatology

Humid “subtropical” climate (Köppen climate classification Cfa) - characterized by hot, humid summers and cool winters. Significant amounts of precipitation occur in all seasons in most areas.

Runways

Designator Length Width Surface Rops
7/25 2439 46 PEM Yes/Yes
Airport map: 
Aerial View: 

SKYbrary Partners:

Safety knowledge contributed by: